Urb Lirios del Sur, Puerto Rico
Current Conditions -  °F | °C
As of 6:50 PM on Sunday 21 Dec 2014 (Local Time) from TJPS Reporting Station
Few Clouds Few Clouds  
Wind Chill: 77°   Ceiling: Unl
Heat Index: 79°   Visibility: 10mi
Dew Point: 64°   Wind: 6mph
Humidity: 65%   Direction: 100°E
Pressure: 29.97"   Gusts: NA
Location:  18.0093°N, 66.6209°W
Report Text: TJPS 212250Z 10005KT 10SM FEW030 25/18 A2997
Loading
Personal Weather Stations






























Interactive Weather Map New forecast layout! Learn more

10-Day Weather Forecast

Advertisements
Track Severe Weather on mobile